Arsenal, Utah
Current Conditions -  °F | °C
As of 10:58 AM on Saturday 20 Dec 2014 (Local Time) from KHIF Reporting Station
Few Clouds Few Clouds  
Wind Chill:   Ceiling: Unl
Heat Index:   Visibility: 10mi
Dew Point:   Wind: 8mph
Humidity: 91%   Direction: 190°S
Pressure: 30.1"   Gusts: NA
Location:  41.123°N, 112.063°W
Report Text: KHIF 201758Z AUTO 19007KT 10SM FEW060 04/03 A3010 RMK AO2 SLP190 60005 T00380025 10038 20012 50000
Loading
Personal Weather Stations






























Interactive Weather Map New forecast layout! Learn more

10-Day Weather Forecast

Advertisements
Track Severe Weather on mobile